Time;durP1;ratioP1;P1;durP2;ratioP2;P2;SDS_P1;SDS_P2;PMS_P1;PMS_P2;Temp;Humidity;BMP_temperature;BMP_pressure;BME280_temperature;BME280_humidity;BME280_pressure;Samples;Min_cycle;Max_cycle;Signal;HPM_P1;HPM_P2
2023/06/03 00:01:07;;;;;;;;;;;21.10;91.50;;;;;;5094596;28;19957;-39
2023/06/03 00:03:32;;;;;;;;;;;21.10;91.50;;;;;;5094844;28;19934;-39
2023/06/03 00:05:59;;;;;;;;;;;21.10;91.60;;;;;;5094765;28;19926;-39
2023/06/03 00:08:24;;;;;;;;;;;21.10;91.70;;;;;;5094758;28;20323;-39
2023/06/03 00:10:50;;;;;;;;;;;21.10;91.90;;;;;;5094596;28;19954;-40
2023/06/03 00:13:15;;;;;;;;;;;21.10;91.70;;;;;;5094819;28;19911;-39
2023/06/03 00:15:41;;;;;;;;;;;21.20;91.80;;;;;;5094449;28;20354;-39
2023/06/03 00:18:07;;;;;;;;;;;21.10;91.80;;;;;;5095004;28;19904;-40
2023/06/03 00:20:36;;;;;;;;;;;21.10;91.90;;;;;;5094676;28;20347;-39
2023/06/03 00:23:05;;;;;;;;;;;21.10;91.90;;;;;;5094604;28;19904;-40
2023/06/03 00:25:34;;;;;;;;;;;21.10;92.20;;;;;;5094560;28;19962;-39
2023/06/03 00:28:00;;;;;;;;;;;21.10;92.10;;;;;;5094602;28;19904;-39
2023/06/03 00:30:26;;;;;;;;;;;21.20;92.10;;;;;;5094535;28;20006;-40
2023/06/03 00:32:51;;;;;;;;;;;21.10;92.20;;;;;;5094522;28;20277;-40
2023/06/03 00:35:17;;;;;;;;;;;21.20;92.30;;;;;;5094506;28;19908;-40
2023/06/03 00:37:42;;;;;;;;;;;21.20;92.30;;;;;;5094469;28;19958;-40
2023/06/03 00:40:08;;;;;;;;;;;21.10;91.90;;;;;;5094013;28;20258;-40
2023/06/03 00:42:33;;;;;;;;;;;21.10;91.90;;;;;;5094457;28;19908;-39
2023/06/03 00:44:59;;;;;;;;;;;21.10;92.00;;;;;;5094262;28;19924;-40
2023/06/03 00:47:25;;;;;;;;;;;21.10;92.20;;;;;;5094102;28;19939;-40
2023/06/03 00:49:50;;;;;;;;;;;21.10;92.00;;;;;;5094359;28;19911;-40
2023/06/03 00:52:17;;;;;;;;;;;21.10;92.00;;;;;;5094096;28;20227;-39
2023/06/03 00:54:43;;;;;;;;;;;21.10;91.80;;;;;;5093994;28;19939;-39
2023/06/03 00:57:10;;;;;;;;;;;21.10;91.90;;;;;;5093954;28;19957;-40
2023/06/03 00:59:35;;;;;;;;;;;21.10;91.90;;;;;;5094267;28;19905;-39
2023/06/03 01:02:01;;;;;;;;;;;21.10;91.90;;;;;;5093944;28;19904;-39
2023/06/03 01:04:28;;;;;;;;;;;21.10;92.30;;;;;;5094145;28;19959;-40
2023/06/03 01:07:16;;;;;;;;;;;21.10;92.20;;;;;;5093955;28;19904;-39
2023/06/03 01:10:01;;;;;;;;;;;21.10;91.90;;;;;;5093629;28;19957;-40
2023/06/03 01:12:32;;;;;;;;;;;21.10;92.10;;;;;;5093627;28;19910;-39
2023/06/03 01:15:00;;;;;;;;;;;21.10;92.20;;;;;;5093973;28;20241;-40
2023/06/03 01:17:28;;;;;;;;;;;21.10;92.40;;;;;;5093773;28;20371;-39
2023/06/03 01:19:56;;;;;;;;;;;21.10;92.30;;;;;;5094018;28;19911;-39
2023/06/03 01:22:26;;;;;;;;;;;21.10;92.10;;;;;;5094059;28;19948;-40
2023/06/03 01:25:08;;;;;;;;;;;21.10;92.10;;;;;;5093972;28;19912;-39
2023/06/03 01:27:36;;;;;;;;;;;21.00;92.00;;;;;;5093628;28;20306;-39
2023/06/03 01:30:03;;;;;;;;;;;21.10;92.30;;;;;;5094037;28;20311;-39
2023/06/03 01:32:28;;;;;;;;;;;21.10;92.20;;;;;;5093610;28;19940;-39
2023/06/03 01:34:54;;;;;;;;;;;21.00;92.20;;;;;;5093880;28;19915;-40
2023/06/03 01:37:21;;;;;;;;;;;21.00;92.10;;;;;;5093629;28;19905;-40
2023/06/03 01:39:46;;;;;;;;;;;21.00;92.20;;;;;;5093831;28;19998;-39
2023/06/03 01:42:12;;;;;;;;;;;21.00;92.20;;;;;;5093599;28;19988;-40
2023/06/03 01:44:38;;;;;;;;;;;21.00;92.10;;;;;;5093475;28;19923;-40
2023/06/03 01:47:04;;;;;;;;;;;21.00;92.00;;;;;;5093806;28;20062;-39
2023/06/03 01:49:31;;;;;;;;;;;21.00;92.10;;;;;;5075667;28;19975;-39
2023/06/03 01:52:00;;;;;;;;;;;21.00;92.40;;;;;;5094373;28;19957;-39
2023/06/03 01:54:27;;;;;;;;;;;21.00;92.30;;;;;;5097362;28;20330;-39
2023/06/03 01:56:53;;;;;;;;;;;21.00;92.40;;;;;;5097375;28;19958;-39
2023/06/03 01:59:20;;;;;;;;;;;21.00;92.50;;;;;;5097296;28;20274;-39
2023/06/03 02:01:45;;;;;;;;;;;21.00;92.00;;;;;;5097392;28;19911;-39
2023/06/03 02:04:11;;;;;;;;;;;21.00;92.30;;;;;;5096901;28;20263;-39
2023/06/03 02:06:37;;;;;;;;;;;21.00;92.40;;;;;;5097209;28;19957;-39
2023/06/03 02:09:02;;;;;;;;;;;21.00;92.30;;;;;;5096827;28;19908;-39
2023/06/03 02:11:28;;;;;;;;;;;21.00;92.40;;;;;;5097138;28;19904;-40
2023/06/03 02:13:53;;;;;;;;;;;21.00;92.50;;;;;;5097124;28;19956;-39
2023/06/03 02:16:20;;;;;;;;;;;21.00;92.60;;;;;;5096849;28;20002;-40
2023/06/03 02:18:45;;;;;;;;;;;21.00;92.20;;;;;;5096808;28;19904;-39
2023/06/03 02:21:11;;;;;;;;;;;21.00;92.50;;;;;;5096879;28;19911;-40
2023/06/03 02:23:36;;;;;;;;;;;21.00;92.60;;;;;;5096906;28;20400;-39
2023/06/03 02:26:02;;;;;;;;;;;21.00;92.40;;;;;;5096450;28;19916;-39
2023/06/03 02:28:29;;;;;;;;;;;21.00;92.70;;;;;;5096566;28;19904;-40
2023/06/03 02:30:54;;;;;;;;;;;21.00;92.70;;;;;;5096819;28;19915;-39
2023/06/03 02:33:20;;;;;;;;;;;21.00;92.40;;;;;;5096718;28;19908;-39
2023/06/03 02:35:46;;;;;;;;;;;21.00;92.60;;;;;;5096717;28;20292;-39
2023/06/03 02:38:11;;;;;;;;;;;21.00;92.40;;;;;;5096381;28;19991;-39
2023/06/03 02:40:37;;;;;;;;;;;20.90;92.30;;;;;;5078433;28;19944;-39
2023/06/03 02:43:02;;;;;;;;;;;21.00;92.70;;;;;;5096827;28;20302;-40
2023/06/03 02:45:28;;;;;;;;;;;21.00;92.70;;;;;;5096603;28;19920;-39
2023/06/03 02:47:53;;;;;;;;;;;21.00;92.50;;;;;;5096488;28;20343;-39
2023/06/03 02:50:19;;;;;;;;;;;21.00;92.50;;;;;;5096128;28;20251;-39
2023/06/03 02:52:44;;;;;;;;;;;21.00;92.90;;;;;;5096006;28;19981;-39
2023/06/03 02:55:10;;;;;;;;;;;21.00;92.80;;;;;;5096245;28;19904;-39
2023/06/03 02:57:35;;;;;;;;;;;21.00;92.70;;;;;;5096456;28;19905;-39
2023/06/03 03:00:01;;;;;;;;;;;21.00;92.80;;;;;;5096108;28;19908;-40
2023/06/03 03:02:27;;;;;;;;;;;21.00;92.80;;;;;;5096224;28;19904;-40
2023/06/03 03:04:53;;;;;;;;;;;21.00;92.80;;;;;;5096124;28;19916;-40
2023/06/03 03:07:20;;;;;;;;;;;21.00;92.40;;;;;;5095967;28;19957;-40
2023/06/03 03:09:46;;;;;;;;;;;21.00;92.70;;;;;;5095898;28;19946;-39
2023/06/03 03:12:11;;;;;;;;;;;21.00;92.80;;;;;;5095612;28;19904;-39
2023/06/03 03:14:37;;;;;;;;;;;21.00;92.60;;;;;;5095645;28;19911;-39
2023/06/03 03:17:02;;;;;;;;;;;21.00;93.00;;;;;;5095564;28;19904;-40
2023/06/03 03:19:28;;;;;;;;;;;21.00;92.60;;;;;;5095589;28;19999;-40
2023/06/03 03:21:53;;;;;;;;;;;20.90;92.40;;;;;;5095534;28;20258;-40
2023/06/03 03:24:19;;;;;;;;;;;20.90;92.40;;;;;;5095645;28;19912;-39
2023/06/03 03:26:45;;;;;;;;;;;21.00;92.80;;;;;;5095270;28;19908;-39
2023/06/03 03:29:10;;;;;;;;;;;20.90;92.90;;;;;;5095243;28;19911;-39
2023/06/03 03:31:36;;;;;;;;;;;21.00;93.10;;;;;;5095550;28;20366;-39
2023/06/03 03:34:01;;;;;;;;;;;21.00;92.90;;;;;;5095058;28;19904;-39
2023/06/03 03:36:30;;;;;;;;;;;21.00;93.00;;;;;;5095448;28;19912;-39
2023/06/03 03:39:03;;;;;;;;;;;21.00;93.30;;;;;;5095470;28;19995;-39
2023/06/03 03:41:29;;;;;;;;;;;21.00;93.10;;;;;;5077163;28;20355;-39
2023/06/03 03:43:54;;;;;;;;;;;21.00;93.10;;;;;;5094990;28;20339;-40
2023/06/03 03:46:20;;;;;;;;;;;21.00;93.10;;;;;;5095080;28;19912;-40
2023/06/03 03:48:46;;;;;;;;;;;21.00;93.10;;;;;;5094947;28;19904;-39
2023/06/03 03:51:14;;;;;;;;;;;21.00;92.80;;;;;;5095176;28;19965;-39
2023/06/03 03:53:47;;;;;;;;;;;21.00;93.00;;;;;;5076744;28;20311;-39
2023/06/03 03:56:17;;;;;;;;;;;21.00;93.00;;;;;;5094977;28;19904;-39
2023/06/03 03:58:43;;;;;;;;;;;21.00;93.00;;;;;;5094619;28;19911;-39
2023/06/03 04:01:13;;;;;;;;;;;21.00;93.00;;;;;;5094665;28;19904;-40
2023/06/03 04:03:42;;;;;;;;;;;21.00;90.60;;;;;;5092727;28;19912;-39
2023/06/03 04:06:09;;;;;;;;;;;21.00;92.00;;;;;;5094304;28;19923;-39
2023/06/03 04:08:36;;;;;;;;;;;21.00;92.10;;;;;;5094776;28;20330;-40
2023/06/03 04:11:02;;;;;;;;;;;21.10;92.60;;;;;;5094760;28;19908;-39
2023/06/03 04:13:27;;;;;;;;;;;21.10;92.70;;;;;;5092780;28;19919;-39
2023/06/03 04:15:53;;;;;;;;;;;21.10;92.70;;;;;;5094190;28;19916;-41
2023/06/03 04:18:19;;;;;;;;;;;21.10;92.40;;;;;;5095140;28;19908;-40
2023/06/03 04:20:45;;;;;;;;;;;21.10;92.60;;;;;;5090560;28;19968;-39
2023/06/03 04:23:15;;;;;;;;;;;21.10;92.30;;;;;;5083814;28;20003;-39
2023/06/03 04:25:41;;;;;;;;;;;21.10;92.50;;;;;;5074252;28;19920;-39
2023/06/03 04:28:07;;;;;;;;;;;21.10;92.60;;;;;;5091688;28;19966;-40
2023/06/03 04:30:34;;;;;;;;;;;21.20;92.60;;;;;;5094515;28;19948;-39
2023/06/03 04:32:59;;;;;;;;;;;21.20;92.70;;;;;;5094455;28;19915;-40
2023/06/03 04:35:25;;;;;;;;;;;21.20;92.50;;;;;;5094728;28;19916;-44
2023/06/03 04:37:50;;;;;;;;;;;21.20;92.30;;;;;;5092650;28;19908;-42
2023/06/03 04:40:16;;;;;;;;;;;21.20;92.30;;;;;;5091942;28;20278;-40
2023/06/03 04:42:41;;;;;;;;;;;21.20;92.50;;;;;;5094233;28;19961;-39
2023/06/03 04:45:08;;;;;;;;;;;21.30;92.50;;;;;;5094092;28;19934;-40
2023/06/03 04:47:34;;;;;;;;;;;21.30;92.60;;;;;;5094219;28;19908;-39
2023/06/03 04:50:01;;;;;;;;;;;21.30;92.60;;;;;;5094203;28;19915;-39
2023/06/03 04:52:27;;;;;;;;;;;21.30;92.60;;;;;;5093841;28;20322;-40
2023/06/03 04:54:52;;;;;;;;;;;21.30;92.60;;;;;;5094047;28;19922;-39
2023/06/03 04:57:18;;;;;;;;;;;21.30;92.60;;;;;;5094104;28;19995;-39
2023/06/03 04:59:43;;;;;;;;;;;21.30;92.60;;;;;;5093872;28;19974;-39
2023/06/03 05:02:09;;;;;;;;;;;21.40;92.70;;;;;;5094459;28;19915;-40
2023/06/03 05:04:34;;;;;;;;;;;21.30;92.60;;;;;;5094024;28;19926;-39
2023/06/03 05:07:00;;;;;;;;;;;21.40;92.60;;;;;;5094038;28;20370;-40
2023/06/03 05:09:26;;;;;;;;;;;21.40;92.60;;;;;;5094195;28;19909;-40
2023/06/03 05:11:51;;;;;;;;;;;21.40;92.70;;;;;;5093766;28;19973;-39
2023/06/03 05:14:17;;;;;;;;;;;21.40;92.70;;;;;;5094048;28;19915;-39
2023/06/03 05:16:43;;;;;;;;;;;21.40;92.70;;;;;;5093965;28;19995;-39
2023/06/03 05:19:08;;;;;;;;;;;21.40;92.60;;;;;;5094010;28;20247;-39
2023/06/03 05:21:34;;;;;;;;;;;21.40;92.50;;;;;;5075841;28;19998;-40
2023/06/03 05:24:00;;;;;;;;;;;21.40;92.30;;;;;;5093963;28;19996;-40
2023/06/03 05:26:26;;;;;;;;;;;21.40;92.30;;;;;;5093691;28;19939;-40
2023/06/03 05:28:52;;;;;;;;;;;21.40;92.40;;;;;;5097783;28;20313;-39
2023/06/03 05:31:17;;;;;;;;;;;21.40;92.00;;;;;;5097474;28;19908;-39
2023/06/03 05:33:43;;;;;;;;;;;21.40;92.00;;;;;;5097433;28;19953;-39
2023/06/03 05:36:08;;;;;;;;;;;21.40;91.90;;;;;;5097433;28;19908;-40
2023/06/03 05:38:34;;;;;;;;;;;21.40;92.00;;;;;;5097613;28;20062;-39
2023/06/03 05:41:00;;;;;;;;;;;21.40;91.90;;;;;;5097492;28;20362;-40
2023/06/03 05:43:25;;;;;;;;;;;21.40;91.70;;;;;;5097535;28;20010;-40
2023/06/03 05:45:51;;;;;;;;;;;21.40;92.00;;;;;;5077133;28;20367;-39
2023/06/03 05:48:16;;;;;;;;;;;21.40;92.20;;;;;;5077166;28;19908;-40
2023/06/03 05:50:54;;;;;;;;;;;21.40;92.30;;;;;;5076844;28;19908;-39
2023/06/03 05:53:24;;;;;;;;;;;21.40;92.30;;;;;;5076709;28;20436;-39
2023/06/03 05:55:50;;;;;;;;;;;21.40;92.10;;;;;;5076913;28;19909;-39
2023/06/03 05:58:16;;;;;;;;;;;21.40;92.30;;;;;;5076591;28;20379;-39
2023/06/03 06:00:41;;;;;;;;;;;21.40;92.30;;;;;;5077208;28;19962;-39
2023/06/03 06:03:07;;;;;;;;;;;21.40;92.10;;;;;;5076859;28;19913;-39
2023/06/03 06:05:33;;;;;;;;;;;21.40;92.10;;;;;;5076699;28;20355;-39
2023/06/03 06:07:58;;;;;;;;;;;21.40;92.20;;;;;;5076882;28;19985;-40
2023/06/03 06:10:24;;;;;;;;;;;21.40;92.30;;;;;;5076818;28;20349;-39
2023/06/03 06:12:49;;;;;;;;;;;21.40;92.20;;;;;;5076642;28;19909;-39
2023/06/03 06:15:15;;;;;;;;;;;21.40;92.20;;;;;;5075478;28;20018;-40
2023/06/03 06:17:42;;;;;;;;;;;21.40;92.00;;;;;;5076361;28;19912;-39
2023/06/03 06:20:09;;;;;;;;;;;21.40;92.20;;;;;;5076385;28;19995;-39
2023/06/03 06:22:34;;;;;;;;;;;21.40;92.10;;;;;;5076784;28;19912;-40
2023/06/03 06:25:02;;;;;;;;;;;21.40;92.20;;;;;;5076356;28;20274;-39
2023/06/03 06:27:28;;;;;;;;;;;21.40;92.20;;;;;;5076260;28;19915;-41
2023/06/03 06:29:54;;;;;;;;;;;21.40;91.60;;;;;;5076049;28;20279;-38
2023/06/03 06:32:23;;;;;;;;;;;21.40;91.90;;;;;;5076171;28;19915;-38
2023/06/03 06:34:49;;;;;;;;;;;21.30;91.50;;;;;;5074360;28;19913;-39
2023/06/03 06:37:17;;;;;;;;;;;21.30;91.80;;;;;;5075492;28;19916;-40
2023/06/03 06:39:45;;;;;;;;;;;21.40;91.90;;;;;;5074168;28;19948;-40
2023/06/03 06:42:17;;;;;;;;;;;21.40;92.20;;;;;;5076073;28;19908;-39
2023/06/03 06:44:46;;;;;;;;;;;21.40;90.30;;;;;;5085189;28;20351;-39
2023/06/03 06:47:14;;;;;;;;;;;21.30;90.00;;;;;;5076266;28;19912;-39
2023/06/03 06:49:39;;;;;;;;;;;21.30;90.80;;;;;;5096060;28;19931;-38
2023/06/03 06:52:08;;;;;;;;;;;21.30;91.10;;;;;;5104161;28;20354;-38
2023/06/03 06:54:33;;;;;;;;;;;21.30;91.40;;;;;;5116534;28;19908;-38
2023/06/03 06:56:59;;;;;;;;;;;21.30;91.40;;;;;;5116297;28;20355;-38
2023/06/03 06:59:25;;;;;;;;;;;21.40;91.60;;;;;;5112904;28;19937;-39
2023/06/03 07:01:50;;;;;;;;;;;21.30;91.20;;;;;;5099123;28;19919;-38
2023/06/03 07:04:16;;;;;;;;;;;21.30;90.90;;;;;;5095454;28;19909;-39
2023/06/03 07:06:41;;;;;;;;;;;21.30;91.30;;;;;;5094373;28;20003;-39
2023/06/03 07:09:07;;;;;;;;;;;21.40;91.40;;;;;;5093901;28;20412;-39
2023/06/03 07:11:36;;;;;;;;;;;21.40;91.60;;;;;;5094589;28;19912;-39
2023/06/03 07:14:02;;;;;;;;;;;21.40;91.70;;;;;;5100036;28;19960;-38
2023/06/03 07:16:27;;;;;;;;;;;21.40;91.80;;;;;;5095448;28;19955;-40
2023/06/03 07:18:53;;;;;;;;;;;21.40;91.70;;;;;;5105935;28;19915;-38
2023/06/03 07:21:23;;;;;;;;;;;21.20;90.00;;;;;;5109927;28;19912;-38
2023/06/03 07:23:49;;;;;;;;;;;20.90;84.00;;;;;;5104881;28;19912;-38
2023/06/03 07:26:15;;;;;;;;;;;20.70;85.00;;;;;;5096929;28;20006;-39
2023/06/03 07:28:40;;;;;;;;;;;20.60;84.40;;;;;;5115455;28;19939;-39
2023/06/03 07:31:08;;;;;;;;;;;20.60;85.40;;;;;;5104073;28;20371;-39
2023/06/03 07:33:36;;;;;;;;;;;20.40;85.00;;;;;;5095298;28;19919;-38
2023/06/03 07:36:02;;;;;;;;;;;20.30;83.40;;;;;;5112137;28;19912;-38
2023/06/03 07:38:37;;;;;;;;;;;20.30;83.10;;;;;;5094672;28;19916;-40
2023/06/03 07:41:03;;;;;;;;;;;20.30;85.00;;;;;;5108169;28;19932;-39
2023/06/03 07:43:28;;;;;;;;;;;20.30;84.10;;;;;;5094607;28;19964;-39
2023/06/03 07:45:54;;;;;;;;;;;20.20;83.80;;;;;;5109109;28;20026;-38
2023/06/03 07:48:20;;;;;;;;;;;20.20;83.60;;;;;;5093966;28;19912;-39
2023/06/03 07:50:45;;;;;;;;;;;20.20;83.50;;;;;;5093794;28;19916;-39
2023/06/03 07:53:14;;;;;;;;;;;20.20;82.90;;;;;;5111246;28;19918;-38
2023/06/03 07:55:45;;;;;;;;;;;20.20;82.50;;;;;;5111512;28;19912;-38
2023/06/03 07:58:14;;;;;;;;;;;20.20;82.40;;;;;;5110997;28;19954;-39
2023/06/03 08:00:42;;;;;;;;;;;20.20;82.80;;;;;;5105540;28;20003;-38
2023/06/03 08:03:08;;;;;;;;;;;20.20;82.80;;;;;;5094794;28;19908;-39
2023/06/03 08:05:35;;;;;;;;;;;20.20;82.40;;;;;;5097775;28;19927;-39
2023/06/03 08:08:03;;;;;;;;;;;20.20;82.70;;;;;;5097027;28;19908;-39
2023/06/03 08:10:28;;;;;;;;;;;20.20;83.10;;;;;;5094344;28;19935;-39
2023/06/03 08:12:53;;;;;;;;;;;20.20;82.40;;;;;;5094322;28;19908;-38
2023/06/03 08:15:25;;;;;;;;;;;20.20;83.00;;;;;;5114049;28;19943;-39
2023/06/03 08:17:50;;;;;;;;;;;20.30;82.70;;;;;;5096669;28;19915;-38
2023/06/03 08:20:16;;;;;;;;;;;20.20;82.10;;;;;;5102069;28;19998;-38
2023/06/03 08:22:43;;;;;;;;;;;20.30;82.50;;;;;;5093163;28;19912;-38
2023/06/03 08:25:09;;;;;;;;;;;20.20;81.20;;;;;;5098835;28;19920;-39
2023/06/03 08:27:35;;;;;;;;;;;20.20;81.50;;;;;;5108212;28;19912;-39
2023/06/03 08:30:03;;;;;;;;;;;20.20;81.50;;;;;;5074545;28;20007;-40
2023/06/03 08:32:38;;;;;;;;;;;20.20;81.40;;;;;;5093355;28;19912;-39
2023/06/03 08:35:04;;;;;;;;;;;20.20;81.80;;;;;;5089583;28;19919;-39
2023/06/03 08:37:30;;;;;;;;;;;20.20;81.30;;;;;;5102606;28;20312;-43
2023/06/03 08:39:55;;;;;;;;;;;20.20;81.80;;;;;;5092957;28;20005;-39
2023/06/03 08:42:28;;;;;;;;;;;20.20;82.10;;;;;;5092749;28;19912;-39
2023/06/03 08:45:02;;;;;;;;;;;20.20;81.20;;;;;;5092968;28;20354;-39
2023/06/03 08:47:46;;;;;;;;;;;20.30;81.70;;;;;;5092615;28;19912;-39
2023/06/03 08:50:15;;;;;;;;;;;20.30;81.90;;;;;;5056677;28;19909;-39
2023/06/03 08:52:42;;;;;;;;;;;20.30;81.00;;;;;;5081690;28;20274;-39
2023/06/03 08:55:11;;;;;;;;;;;20.30;80.90;;;;;;5093868;28;19915;-39
2023/06/03 08:57:40;;;;;;;;;;;20.30;81.10;;;;;;5104003;28;19996;-39
2023/06/03 09:00:07;;;;;;;;;;;20.20;80.60;;;;;;5114015;28;20367;-39
2023/06/03 09:02:34;;;;;;;;;;;20.20;81.00;;;;;;5116925;28;19916;-39
2023/06/03 09:05:03;;;;;;;;;;;20.30;80.80;;;;;;5101446;28;20376;-40
2023/06/03 09:07:30;;;;;;;;;;;20.30;80.40;;;;;;5113175;28;19918;-39
2023/06/03 09:09:56;;;;;;;;;;;20.30;80.70;;;;;;5111718;28;19912;-38
2023/06/03 09:12:22;;;;;;;;;;;20.40;80.60;;;;;;5096638;28;19953;-37
2023/06/03 09:14:48;;;;;;;;;;;20.40;81.20;;;;;;5079611;28;19988;-39
2023/06/03 09:17:13;;;;;;;;;;;20.50;82.10;;;;;;5097766;28;20332;-38
2023/06/03 09:19:39;;;;;;;;;;;20.50;82.70;;;;;;5084709;28;19952;-39
2023/06/03 09:22:05;;;;;;;;;;;20.60;83.50;;;;;;5087110;28;19922;-38
2023/06/03 09:24:31;;;;;;;;;;;20.60;84.10;;;;;;5097485;28;20374;-40
2023/06/03 09:26:56;;;;;;;;;;;20.60;84.50;;;;;;5097455;28;19916;-38
2023/06/03 09:29:22;;;;;;;;;;;20.70;84.90;;;;;;5097283;28;20312;-38
2023/06/03 09:31:48;;;;;;;;;;;20.70;85.00;;;;;;5097725;28;19908;-39
2023/06/03 09:34:14;;;;;;;;;;;20.70;85.10;;;;;;5097634;28;20050;-39
2023/06/03 09:36:43;;;;;;;;;;;20.70;85.20;;;;;;5097319;28;20348;-38
2023/06/03 09:39:10;;;;;;;;;;;20.70;85.20;;;;;;5097473;28;19908;-39
2023/06/03 09:41:36;;;;;;;;;;;20.80;85.40;;;;;;5097359;28;19908;-39
2023/06/03 09:44:05;;;;;;;;;;;20.80;85.70;;;;;;5097014;28;20252;-39
2023/06/03 09:46:32;;;;;;;;;;;20.80;85.80;;;;;;5097169;28;19917;-39
2023/06/03 09:49:11;;;;;;;;;;;20.80;85.90;;;;;;5096939;28;19938;-39
2023/06/03 09:51:41;;;;;;;;;;;20.80;86.00;;;;;;5097185;28;20340;-38
2023/06/03 09:54:11;;;;;;;;;;;20.80;86.10;;;;;;5096855;28;19908;-38
2023/06/03 09:56:37;;;;;;;;;;;20.80;86.20;;;;;;5078982;28;20305;-39
2023/06/03 09:59:22;;;;;;;;;;;20.90;86.40;;;;;;5097266;28;19915;-39
2023/06/03 10:01:49;;;;;;;;;;;20.90;86.50;;;;;;5096983;28;20308;-38
2023/06/03 10:04:20;;;;;;;;;;;20.90;86.50;;;;;;5096971;28;19915;-39
2023/06/03 10:06:47;;;;;;;;;;;20.90;86.60;;;;;;5096847;28;19923;-38
2023/06/03 10:09:19;;;;;;;;;;;20.90;86.70;;;;;;5096523;28;19987;-39
2023/06/03 10:11:45;;;;;;;;;;;20.90;86.70;;;;;;5096629;28;19915;-37
2023/06/03 10:14:10;;;;;;;;;;;20.90;86.80;;;;;;5096063;28;19908;-38
2023/06/03 10:16:36;;;;;;;;;;;20.90;86.80;;;;;;5078913;28;19915;-39
2023/06/03 10:19:02;;;;;;;;;;;20.90;86.90;;;;;;5096375;28;19908;-39
2023/06/03 10:21:28;;;;;;;;;;;20.90;86.90;;;;;;5096681;28;20270;-38
2023/06/03 10:23:56;;;;;;;;;;;20.90;87.00;;;;;;5096691;28;19912;-39
2023/06/03 10:26:22;;;;;;;;;;;20.90;87.10;;;;;;5096183;28;19916;-39
2023/06/03 10:28:49;;;;;;;;;;;21.00;87.20;;;;;;5096610;28;19908;-38
2023/06/03 10:31:15;;;;;;;;;;;20.90;87.20;;;;;;5096425;28;20069;-39
2023/06/03 10:33:41;;;;;;;;;;;21.00;87.30;;;;;;5096533;28;19961;-38
2023/06/03 10:36:06;;;;;;;;;;;21.00;87.30;;;;;;5096155;28;19915;-39
2023/06/03 10:38:32;;;;;;;;;;;21.00;87.30;;;;;;5096119;28;19912;-40
2023/06/03 10:41:03;;;;;;;;;;;21.00;87.30;;;;;;5096759;28;19973;-39
2023/06/03 10:43:30;;;;;;;;;;;21.00;87.40;;;;;;5078152;28;19908;-39
2023/06/03 10:45:57;;;;;;;;;;;21.00;87.50;;;;;;5096552;28;19923;-38
2023/06/03 10:48:23;;;;;;;;;;;21.00;87.50;;;;;;5096309;28;19912;-39
2023/06/03 10:51:07;;;;;;;;;;;21.00;87.50;;;;;;5096182;28;19908;-38
2023/06/03 10:53:41;;;;;;;;;;;21.00;87.50;;;;;;5095950;28;19908;-39
2023/06/03 10:56:16;;;;;;;;;;;21.00;87.60;;;;;;5096077;28;19908;-38
2023/06/03 10:58:43;;;;;;;;;;;21.00;87.70;;;;;;5096081;28;19963;-39
2023/06/03 11:01:08;;;;;;;;;;;21.00;87.60;;;;;;5095696;28;19915;-39
2023/06/03 11:03:36;;;;;;;;;;;21.00;87.70;;;;;;5095949;28;19908;-39
2023/06/03 11:06:16;;;;;;;;;;;21.00;87.70;;;;;;5095708;28;20421;-38
2023/06/03 11:08:58;;;;;;;;;;;21.00;87.70;;;;;;5096130;28;19947;-39
2023/06/03 11:11:39;;;;;;;;;;;21.00;87.70;;;;;;5095530;28;19908;-39
2023/06/03 11:14:05;;;;;;;;;;;21.10;87.70;;;;;;5095440;28;19912;-39
2023/06/03 11:16:30;;;;;;;;;;;21.10;87.80;;;;;;5095093;28;19915;-39
2023/06/03 11:19:15;;;;;;;;;;;21.00;87.70;;;;;;5095511;28;19962;-39
2023/06/03 11:21:47;;;;;;;;;;;21.10;87.80;;;;;;5077273;28;20357;-39
2023/06/03 11:24:32;;;;;;;;;;;21.10;87.80;;;;;;5094140;28;20002;-39
2023/06/03 11:26:59;;;;;;;;;;;21.10;87.80;;;;;;5094670;28;19992;-38
2023/06/03 11:29:43;;;;;;;;;;;21.10;88.00;;;;;;5095122;28;19909;-39
2023/06/03 11:32:15;;;;;;;;;;;21.10;88.00;;;;;;5095042;28;19915;-39
2023/06/03 11:34:41;;;;;;;;;;;21.10;87.90;;;;;;5094887;28;19965;-39
2023/06/03 11:37:07;;;;;;;;;;;21.10;87.90;;;;;;5094962;28;19912;-39
2023/06/03 11:39:51;;;;;;;;;;;21.10;88.00;;;;;;5095047;28;19930;-39
2023/06/03 11:42:16;;;;;;;;;;;21.10;88.00;;;;;;5094713;28;19999;-39
2023/06/03 11:44:43;;;;;;;;;;;21.10;87.90;;;;;;5094554;28;20415;-39
2023/06/03 11:47:08;;;;;;;;;;;21.10;87.90;;;;;;5094868;28;20300;-39
2023/06/03 11:49:35;;;;;;;;;;;21.10;87.90;;;;;;5094575;28;19958;-40
2023/06/03 11:52:01;;;;;;;;;;;21.10;88.00;;;;;;5076534;28;20339;-39
2023/06/03 11:54:26;;;;;;;;;;;21.10;88.20;;;;;;5094974;28;20002;-39
2023/06/03 11:56:54;;;;;;;;;;;21.10;88.20;;;;;;5094799;28;20262;-39
2023/06/03 11:59:20;;;;;;;;;;;21.10;88.40;;;;;;5094891;28;20320;-39
2023/06/03 12:01:56;;;;;;;;;;;21.10;88.40;;;;;;5094812;28;20343;-39
2023/06/03 12:04:22;;;;;;;;;;;21.10;88.40;;;;;;5094611;28;20334;-39
2023/06/03 12:06:47;;;;;;;;;;;21.10;88.30;;;;;;5094459;28;19995;-39
2023/06/03 12:09:19;;;;;;;;;;;21.10;88.30;;;;;;5094214;28;19908;-39
2023/06/03 12:11:45;;;;;;;;;;;21.10;88.20;;;;;;5094346;28;20378;-38
2023/06/03 12:14:11;;;;;;;;;;;21.10;88.30;;;;;;5094102;28;19960;-39
2023/06/03 12:16:37;;;;;;;;;;;21.10;88.40;;;;;;5093956;28;19908;-39
2023/06/03 12:19:04;;;;;;;;;;;21.10;88.40;;;;;;5094320;28;19961;-41
2023/06/03 12:21:30;;;;;;;;;;;21.10;88.40;;;;;;5094407;28;20301;-38
2023/06/03 12:23:56;;;;;;;;;;;21.20;88.40;;;;;;5094134;28;19908;-38
2023/06/03 12:26:23;;;;;;;;;;;21.10;88.60;;;;;;5094047;28;20241;-38
2023/06/03 12:28:49;;;;;;;;;;;21.20;88.50;;;;;;5093940;28;19908;-38
2023/06/03 12:31:15;;;;;;;;;;;21.20;88.50;;;;;;5094292;28;20369;-39
2023/06/03 12:33:41;;;;;;;;;;;21.20;88.70;;;;;;5094028;28;19919;-39
2023/06/03 12:36:07;;;;;;;;;;;21.20;88.80;;;;;;5093976;28;20002;-39
2023/06/03 12:38:33;;;;;;;;;;;21.20;88.80;;;;;;5094130;28;19958;-38
2023/06/03 12:41:10;;;;;;;;;;;21.20;88.70;;;;;;5093606;28;19908;-39
2023/06/03 12:43:36;;;;;;;;;;;21.20;88.70;;;;;;5093673;28;19908;-38
2023/06/03 12:46:16;;;;;;;;;;;21.20;88.90;;;;;;5093142;28;20277;-38
2023/06/03 12:48:42;;;;;;;;;;;21.20;88.80;;;;;;5094028;28;19955;-38
2023/06/03 12:51:23;;;;;;;;;;;21.20;88.90;;;;;;5094079;28;19908;-39
2023/06/03 12:53:49;;;;;;;;;;;21.20;89.10;;;;;;5093782;28;19980;-38
2023/06/03 12:56:15;;;;;;;;;;;21.20;89.20;;;;;;5093745;28;19954;-38
2023/06/03 12:58:42;;;;;;;;;;;21.20;89.10;;;;;;5093630;28;19918;-39
2023/06/03 13:01:09;;;;;;;;;;;21.20;89.10;;;;;;5094018;28;19908;-38
2023/06/03 13:03:34;;;;;;;;;;;21.20;89.00;;;;;;5093588;28;20438;-40
2023/06/03 13:06:00;;;;;;;;;;;21.20;89.00;;;;;;5093664;28;20015;-38
2023/06/03 13:08:25;;;;;;;;;;;21.20;89.00;;;;;;5093820;28;20228;-38
2023/06/03 13:10:51;;;;;;;;;;;21.20;88.90;;;;;;5093719;28;19908;-38
2023/06/03 13:13:16;;;;;;;;;;;21.20;88.90;;;;;;5093545;28;20355;-39
2023/06/03 13:15:42;;;;;;;;;;;21.20;89.00;;;;;;5093838;28;19912;-40
2023/06/03 13:18:07;;;;;;;;;;;21.20;88.90;;;;;;5093618;28;19908;-39
2023/06/03 13:20:33;;;;;;;;;;;21.20;88.90;;;;;;5093779;28;19908;-39
2023/06/03 13:22:58;;;;;;;;;;;21.20;88.90;;;;;;5093599;28;19995;-39
2023/06/03 13:25:24;;;;;;;;;;;21.20;88.90;;;;;;5093671;28;19916;-39
2023/06/03 13:27:49;;;;;;;;;;;21.20;88.70;;;;;;5075446;28;19908;-39
2023/06/03 13:30:15;;;;;;;;;;;21.20;88.60;;;;;;5093793;28;19912;-40
2023/06/03 13:32:41;;;;;;;;;;;21.20;88.60;;;;;;5093662;28;19912;-39
2023/06/03 13:35:06;;;;;;;;;;;21.20;88.60;;;;;;5075626;28;19959;-40
2023/06/03 13:37:32;;;;;;;;;;;21.20;88.50;;;;;;5075414;28;19998;-39
2023/06/03 13:39:57;;;;;;;;;;;21.20;88.60;;;;;;5093307;28;19961;-39
2023/06/03 13:42:23;;;;;;;;;;;21.20;88.60;;;;;;5075460;28;20022;-39
2023/06/03 13:44:49;;;;;;;;;;;21.20;88.50;;;;;;5075093;28;19920;-39
2023/06/03 13:47:14;;;;;;;;;;;21.20;88.60;;;;;;5093762;28;20328;-39
2023/06/03 13:49:39;;;;;;;;;;;21.20;88.60;;;;;;5078639;28;20015;-40
2023/06/03 13:52:05;;;;;;;;;;;21.20;88.60;;;;;;5097335;28;19999;-39
2023/06/03 13:54:31;;;;;;;;;;;21.20;88.70;;;;;;5097217;28;19908;-39
2023/06/03 13:56:56;;;;;;;;;;;21.20;88.80;;;;;;5078933;28;20400;-39
2023/06/03 13:59:22;;;;;;;;;;;21.20;88.80;;;;;;5096954;28;20354;-39
2023/06/03 14:01:47;;;;;;;;;;;21.20;88.70;;;;;;5096882;28;19972;-39
2023/06/03 14:04:14;;;;;;;;;;;21.20;88.70;;;;;;5096501;28;20358;-39
2023/06/03 14:06:39;;;;;;;;;;;21.20;88.70;;;;;;5096720;28;19969;-39
2023/06/03 14:09:05;;;;;;;;;;;21.20;88.70;;;;;;5096263;28;19931;-39
2023/06/03 14:11:30;;;;;;;;;;;21.20;88.70;;;;;;5096506;28;19952;-38
2023/06/03 14:13:56;;;;;;;;;;;21.20;88.70;;;;;;5096878;28;19947;-39
2023/06/03 14:16:26;;;;;;;;;;;21.20;88.70;;;;;;5096637;28;19931;-38